Time;durP1;ratioP1;P1;durP2;ratioP2;P2;SDS_P1;SDS_P2;PMS_P1;PMS_P2;Temp;Humidity;BMP_temperature;BMP_pressure;BME280_temperature;BME280_humidity;BME280_pressure;Samples;Min_cycle;Max_cycle;Signal;HPM_P1;HPM_P2
2022/06/14 00:03:11;;;;;;;3.38;1.50;;;;;;;14.02;nan;101157.63;4991518;28;20046;-71
2022/06/14 00:05:36;;;;;;;3.83;1.77;;;;;;;13.98;nan;101160.78;4992523;28;20026;-71
2022/06/14 00:08:02;;;;;;;2.58;1.48;;;;;;;13.94;nan;101159.41;4993395;28;20049;-72
2022/06/14 00:10:28;;;;;;;1.60;1.25;;;;;;;13.83;nan;101157.88;4992619;28;20503;-72
2022/06/14 00:12:53;;;;;;;2.55;1.45;;;;;;;13.72;nan;101147.50;4975689;28;20399;-72
2022/06/14 00:15:19;;;;;;;3.58;1.40;;;;;;;13.64;nan;101153.59;4994920;28;20037;-71
2022/06/14 00:17:44;;;;;;;2.88;1.40;;;;;;;13.67;nan;101160.44;4993897;28;20088;-71
2022/06/14 00:20:11;;;;;;;2.42;1.60;;;;;;;13.70;nan;101155.63;4992672;28;20026;-72
2022/06/14 00:22:37;;;;;;;4.55;1.60;;;;;;;13.71;nan;101157.31;4975329;28;20030;-71
2022/06/14 00:25:03;;;;;;;4.32;1.80;;;;;;;13.67;nan;101155.94;4993176;28;20119;-72
2022/06/14 00:27:28;;;;;;;3.20;1.80;;;;;;;13.66;nan;101151.63;4991693;28;20088;-71
2022/06/14 00:29:54;;;;;;;2.72;1.60;;;;;;;13.71;nan;101152.00;4992207;28;20447;-71
2022/06/14 00:32:19;;;;;;;4.80;2.00;;;;;;;13.79;nan;101145.88;4992226;28;20451;-71
2022/06/14 00:34:44;;;;;;;3.28;1.75;;;;;;;13.87;nan;101147.75;4992658;28;20061;-72
2022/06/14 00:37:15;;;;;;;2.97;1.65;;;;;;;13.87;nan;101147.75;4995512;28;20125;-71
2022/06/14 00:39:40;;;;;;;3.08;1.65;;;;;;;13.89;nan;101146.59;4975478;28;20034;-72
2022/06/14 00:42:06;;;;;;;2.85;1.70;;;;;;;13.89;nan;101151.06;4991909;28;20262;-71
2022/06/14 00:44:31;;;;;;;3.17;1.75;;;;;;;13.85;nan;101147.91;4998952;28;20427;-72
2022/06/14 00:47:11;;;;;;;2.63;1.48;;;;;;;13.84;nan;101146.22;4989686;28;20554;-71
2022/06/14 00:49:49;;;;;;;4.57;1.98;;;;;;;13.76;nan;101149.69;4990955;28;20085;-72
2022/06/14 00:52:24;;;;;;;3.25;1.58;;;;;;;13.71;nan;101146.66;4989813;28;20096;-71
2022/06/14 00:54:54;;;;;;;3.10;1.60;;;;;;;13.71;nan;101136.03;4990220;28;20038;-72
2022/06/14 00:57:24;;;;;;;3.40;2.08;;;;;;;13.73;nan;101149.16;4991138;28;20027;-72
2022/06/14 01:00:09;;;;;;;3.22;1.70;;;;;;;13.69;nan;101138.00;4989386;28;20502;-71
2022/06/14 01:02:41;;;;;;;2.75;1.70;;;;;;;13.65;nan;101139.31;4990268;28;20496;-72
2022/06/14 01:05:13;;;;;;;3.97;1.70;;;;;;;13.62;nan;101131.66;4989712;28;20045;-71
2022/06/14 01:07:43;;;;;;;3.53;1.50;;;;;;;13.60;nan;101139.78;4990641;28;20038;-72
2022/06/14 01:10:16;;;;;;;3.70;1.35;;;;;;;13.53;nan;101135.25;4989279;28;20730;-72
2022/06/14 01:12:46;;;;;;;2.17;1.30;;;;;;;13.47;nan;101128.75;4990442;28;20100;-71
2022/06/14 01:15:16;;;;;;;2.13;1.30;;;;;;;13.36;nan;101136.97;4991459;28;20418;-72
2022/06/14 01:17:46;;;;;;;3.03;1.50;;;;;;;13.23;nan;101134.69;4974481;28;20074;-72
2022/06/14 01:20:17;;;;;;;2.30;1.30;;;;;;;13.12;nan;101138.41;4989384;28;20076;-71
2022/06/14 01:22:44;;;;;;;2.60;1.70;;;;;;;12.98;nan;101136.28;4990443;28;20046;-71
2022/06/14 01:25:09;;;;;;;2.17;1.52;;;;;;;12.86;nan;101133.03;4988778;28;20054;-71
2022/06/14 01:27:37;;;;;;;2.75;1.52;;;;;;;12.81;nan;101137.13;4990700;28;20038;-71
2022/06/14 01:30:09;;;;;;;4.07;1.80;;;;;;;12.71;nan;101130.09;4988834;28;20523;-72
2022/06/14 01:32:41;;;;;;;3.13;1.63;;;;;;;12.64;nan;101136.97;4986378;28;20038;-72
2022/06/14 01:35:10;;;;;;;3.63;1.75;;;;;;;12.60;nan;101142.72;4988766;28;20038;-71
2022/06/14 01:37:36;;;;;;;2.67;1.65;;;;;;;12.60;nan;101134.78;4990481;28;20459;-71
2022/06/14 01:40:05;;;;;;;3.13;1.80;;;;;;;12.58;nan;101136.72;4988611;28;20037;-71
2022/06/14 01:43:09;;;;;;;3.28;1.65;;;;;;;12.51;nan;101137.34;4988874;28;20527;-71
2022/06/14 01:45:44;;;;;;;4.30;2.03;;;;;;;12.45;nan;101137.94;4989810;28;20038;-71
2022/06/14 01:48:45;;;;;;;2.80;1.70;;;;;;;12.36;nan;101133.53;4987681;28;20042;-72
2022/06/14 01:51:51;;;;;;;3.20;1.70;;;;;;;12.30;nan;101131.47;4988485;28;20414;-71
2022/06/14 01:54:37;;;;;;;3.25;1.92;;;;;;;12.22;nan;101131.34;4988861;28;20468;-71
2022/06/14 01:57:23;;;;;;;2.80;1.60;;;;;;;12.17;nan;101130.97;4987669;28;20430;-71
2022/06/14 02:00:22;;;;;;;3.05;1.95;;;;;;;12.18;nan;101127.31;4988663;28;20031;-71
2022/06/14 02:06:18;;;;;;;3.30;1.85;;;;;;;12.11;nan;101130.59;4987822;28;20518;-71
2022/06/14 02:08:55;;;;;;;3.05;1.80;;;;;;;12.04;nan;101128.69;4984505;28;20062;-71
2022/06/14 02:11:31;;;;;;;3.85;1.75;;;;;;;11.98;nan;101129.25;4989176;28;20097;-71
2022/06/14 02:14:24;;;;;;;3.72;1.75;;;;;;;11.95;nan;101140.97;4970791;28;20038;-71
2022/06/14 02:17:02;;;;;;;2.22;1.40;;;;;;;12.00;nan;101136.06;4991626;28;20119;-71
2022/06/14 02:19:38;;;;;;;3.03;1.33;;;;;;;12.00;nan;101140.53;4988329;28;20034;-71
2022/06/14 02:22:14;;;;;;;2.28;1.40;;;;;;;12.04;nan;101137.47;4988660;28;20030;-71
2022/06/14 02:24:53;;;;;;;3.33;1.70;;;;;;;12.08;nan;101135.34;4983595;28;20081;-71
2022/06/14 02:27:39;;;;;;;3.50;1.70;;;;;;;12.09;nan;101137.00;4988895;28;20038;-71
2022/06/14 02:30:10;;;;;;;4.45;1.60;;;;;;;12.12;nan;101136.72;4987079;28;20038;-72
2022/06/14 02:33:09;;;;;;;2.10;1.40;;;;;;;12.14;nan;101132.09;4982677;28;20038;-71
2022/06/14 02:35:51;;;;;;;2.63;1.52;;;;;;;12.11;nan;101138.53;4983242;28;20515;-71
2022/06/14 02:38:40;;;;;;;2.97;1.33;;;;;;;12.17;nan;101134.44;4990237;28;20542;-71
2022/06/14 02:41:10;;;;;;;4.47;1.67;;;;;;;12.23;nan;101148.97;4987200;28;20053;-71
2022/06/14 02:43:43;;;;;;;5.25;1.73;;;;;;;12.28;nan;101144.03;4988543;28;20034;-71
2022/06/14 02:46:21;;;;;;;5.63;2.45;;;;;;;12.32;nan;101142.75;4971472;28;20446;-71
2022/06/14 02:49:18;;;;;;;7.28;2.25;;;;;;;12.28;nan;101139.56;4990280;28;20046;-71
2022/06/14 02:51:48;;;;;;;3.05;1.77;;;;;;;12.28;nan;101130.78;4986866;28;20065;-71
2022/06/14 02:54:22;;;;;;;4.72;1.73;;;;;;;12.25;nan;101133.72;4986769;28;20454;-71
2022/06/14 02:56:58;;;;;;;3.30;1.60;;;;;;;12.28;nan;101128.13;4987907;28;20500;-71
2022/06/14 02:59:34;;;;;;;3.65;1.70;;;;;;;12.29;nan;101132.44;4971155;28;20665;-71
2022/06/14 03:02:07;;;;;;;3.83;1.73;;;;;;;12.30;nan;101128.81;4985986;28;20037;-71
2022/06/14 03:04:37;;;;;;;2.80;1.70;;;;;;;12.30;nan;101124.34;4983326;28;20046;-71
2022/06/14 03:07:08;;;;;;;2.75;1.60;;;;;;;12.29;nan;101121.84;4987052;28;20038;-71
2022/06/14 03:09:36;;;;;;;3.45;1.70;;;;;;;12.29;nan;101119.19;4982758;28;20458;-71
2022/06/14 03:12:02;;;;;;;3.67;1.67;;;;;;;12.30;nan;101132.31;4987486;28;20598;-71
2022/06/14 03:14:35;;;;;;;4.78;1.60;;;;;;;12.31;nan;101130.47;4985553;28;20137;-71
2022/06/14 03:17:15;;;;;;;2.53;1.35;;;;;;;12.31;nan;101125.19;4988969;28;20030;-71
2022/06/14 03:20:08;;;;;;;2.78;1.67;;;;;;;12.27;nan;101119.31;4983270;28;20034;-71
2022/06/14 03:22:52;;;;;;;2.35;1.55;;;;;;;12.25;nan;101131.91;4984813;28;20038;-71
2022/06/14 03:25:29;;;;;;;3.00;1.52;;;;;;;12.25;nan;101121.31;4989993;28;20078;-71
2022/06/14 03:28:01;;;;;;;2.95;1.45;;;;;;;12.23;nan;101133.06;4985645;28;20042;-71
2022/06/14 03:30:34;;;;;;;2.55;1.50;;;;;;;12.21;nan;101124.41;4986473;28;20038;-71
2022/06/14 03:33:33;;;;;;;3.13;1.40;;;;;;;12.21;nan;101127.88;4985501;28;20042;-71
2022/06/14 03:36:00;;;;;;;2.85;1.50;;;;;;;12.19;nan;101121.06;4988324;28;20133;-71
2022/06/14 03:38:33;;;;;;;2.40;1.35;;;;;;;12.19;nan;101124.53;4985041;28;20041;-71
2022/06/14 03:40:59;;;;;;;4.03;1.70;;;;;;;12.21;nan;101137.66;4987321;28;20088;-71
2022/06/14 03:43:25;;;;;;;3.42;1.90;;;;;;;12.21;nan;101129.72;4993503;28;20042;-71
2022/06/14 03:46:01;;;;;;;3.83;1.83;;;;;;;12.22;nan;101126.06;4986887;28;20045;-71
2022/06/14 03:48:29;;;;;;;3.92;1.70;;;;;;;12.22;nan;101126.06;4988067;28;20057;-72
2022/06/14 03:51:20;;;;;;;3.58;1.70;;;;;;;12.20;nan;101123.53;4986803;28;20034;-71
2022/06/14 03:54:10;;;;;;;2.65;1.65;;;;;;;12.20;nan;101125.38;4987420;28;20056;-72
2022/06/14 03:57:04;;;;;;;2.58;1.77;;;;;;;12.20;nan;101126.19;4985202;28;20057;-71
2022/06/14 03:59:55;;;;;;;3.00;1.63;;;;;;;12.21;nan;101121.75;4987620;28;20093;-72
2022/06/14 04:02:53;;;;;;;;;;;;;;;12.21;nan;101132.34;4986997;28;20045;-71
2022/06/14 04:05:22;;;;;;;2.63;1.67;;;;;;;12.23;nan;101135.69;4986863;28;20838;-71
2022/06/14 04:08:03;;;;;;;2.35;1.55;;;;;;;12.26;nan;101133.56;4986914;28;20046;-71
2022/06/14 04:10:44;;;;;;;3.85;2.13;;;;;;;12.33;nan;101144.44;4986939;28;20042;-71
2022/06/14 04:13:34;;;;;;;3.03;1.60;;;;;;;12.36;nan;101141.47;4986161;28;20109;-72
2022/06/14 04:16:14;;;;;;;2.97;1.55;;;;;;;12.38;nan;101150.13;4987213;28;20419;-71
2022/06/14 04:19:03;;;;;;;4.00;1.80;;;;;;;12.41;nan;101151.63;4982166;28;20061;-71
2022/06/14 04:21:53;;;;;;;3.22;1.80;;;;;;;12.42;nan;101148.00;4987176;28;20034;-71
2022/06/14 04:24:40;;;;;;;2.95;2.08;;;;;;;12.43;nan;101142.53;4990146;28;20057;-72
2022/06/14 04:27:40;;;;;;;3.65;1.80;;;;;;;12.46;nan;101158.16;4990015;28;20038;-71
2022/06/14 04:30:25;;;;;;;2.72;1.70;;;;;;;12.48;nan;101148.25;4985951;28;20129;-72
2022/06/14 04:33:00;;;;;;;3.78;1.88;;;;;;;12.51;nan;101147.09;4987232;28;20219;-72
2022/06/14 04:35:45;;;;;;;3.85;1.98;;;;;;;12.57;nan;101143.88;4990768;28;20038;-71
2022/06/14 04:38:31;;;;;;;3.25;1.58;;;;;;;12.67;nan;101143.78;4992348;28;20501;-71
2022/06/14 04:41:19;;;;;;;2.78;1.40;;;;;;;12.73;nan;101141.38;4990233;28;20045;-71
2022/06/14 04:43:51;;;;;;;2.63;1.30;;;;;;;12.81;nan;101148.59;4994587;28;20070;-71
2022/06/14 04:46:31;;;;;;;2.80;1.20;;;;;;;12.84;nan;101145.63;4990312;28;20426;-72
2022/06/14 04:49:09;;;;;;;1.58;1.08;;;;;;;12.86;nan;101138.34;4990212;28;20125;-71
2022/06/14 04:51:51;;;;;;;1.77;0.93;;;;;;;12.88;nan;101140.84;4988140;28;20042;-71
2022/06/14 04:54:27;;;;;;;1.83;0.90;;;;;;;12.91;nan;101138.72;4989491;28;20046;-72
2022/06/14 04:57:04;;;;;;;2.22;1.10;;;;;;;12.99;nan;101137.13;4990163;28;20042;-71
2022/06/14 04:59:35;;;;;;;1.55;1.05;;;;;;;13.07;nan;101131.91;4989682;28;20042;-71
2022/06/14 05:02:09;;;;;;;2.65;1.02;;;;;;;13.14;nan;101138.25;4988263;28;20061;-72
2022/06/14 05:04:40;;;;;;;1.77;1.00;;;;;;;13.19;nan;101138.63;4984483;28;20030;-71
2022/06/14 05:07:13;;;;;;;2.35;1.58;;;;;;;13.21;nan;101141.97;4989820;28;20042;-72
2022/06/14 05:09:52;;;;;;;3.10;1.77;;;;;;;13.25;nan;101140.69;4985644;28;20053;-72
2022/06/14 05:12:30;;;;;;;3.05;1.60;;;;;;;13.30;nan;101140.22;4987076;28;20023;-71
2022/06/14 05:15:20;;;;;;;4.70;1.90;;;;;;;13.40;nan;101126.88;4990479;28;20117;-71
2022/06/14 05:17:55;;;;;;;3.33;1.58;;;;;;;13.51;nan;101127.44;4987253;28;20090;-72
2022/06/14 05:20:40;;;;;;;2.22;1.40;;;;;;;13.59;nan;101135.47;4989332;28;20502;-72
2022/06/14 05:23:35;;;;;;;2.97;1.48;;;;;;;13.66;nan;101126.84;4971438;28;20038;-72
2022/06/14 05:26:52;;;;;;;3.25;1.70;;;;;;;13.78;nan;101122.97;4987194;28;20065;-71
2022/06/14 05:29:31;;;;;;;3.55;1.55;;;;;;;13.90;nan;101124.34;4956061;28;20499;-72
2022/06/14 05:32:23;;;;;;;3.20;1.70;;;;;;;14.01;nan;101121.41;4988313;28;20081;-72
2022/06/14 05:35:07;;;;;;;4.25;1.60;;;;;;;14.19;nan;101118.66;4986291;28;20067;-72
2022/06/14 05:37:49;;;;;;;3.63;1.73;;;;;;;14.36;nan;101124.84;4993482;28;20046;-71
2022/06/14 05:40:41;;;;;;;6.32;2.70;;;;;;;14.56;nan;101121.94;4988634;28;20072;-72
2022/06/14 05:43:35;;;;;;;4.47;2.35;;;;;;;14.78;nan;101117.84;4989293;28;20125;-72
2022/06/14 05:46:13;;;;;;;9.82;4.10;;;;;;;14.99;nan;101126.16;4961013;28;20373;-72
2022/06/14 05:48:47;;;;;;;8.27;3.28;;;;;;;15.40;nan;101117.31;4990060;28;20046;-72
2022/06/14 05:51:16;;;;;;;5.43;2.60;;;;;;;15.85;nan;101114.06;4989321;28;20153;-72
2022/06/14 05:53:52;;;;;;;5.00;2.63;;;;;;;16.38;nan;101126.84;4988411;28;20072;-72
2022/06/14 05:56:38;;;;;;;3.15;1.90;;;;;;;17.03;nan;101121.09;4989156;28;20034;-73
2022/06/14 05:59:24;;;;;;;5.20;2.00;;;;;;;17.58;nan;101114.56;4989035;28;20519;-73
2022/06/14 06:01:57;;;;;;;4.93;2.50;;;;;;;17.98;nan;101117.00;4988484;28;20384;-73
2022/06/14 06:04:30;;;;;;;2.65;2.00;;;;;;;18.40;nan;101127.00;4985646;28;20407;-73
2022/06/14 06:07:02;;;;;;;5.32;2.50;;;;;;;18.73;nan;101125.66;4988654;28;20030;-73
2022/06/14 06:09:36;;;;;;;5.05;2.38;;;;;;;18.97;nan;101122.63;4989403;28;20038;-73
2022/06/14 06:12:12;;;;;;;4.00;2.20;;;;;;;19.26;nan;101116.28;4989343;28;20050;-73
2022/06/14 06:14:51;;;;;;;4.40;2.40;;;;;;;19.55;nan;101121.66;4988729;28;20595;-73
2022/06/14 06:17:23;;;;;;;;;;;;;;;19.69;nan;101118.88;4989061;28;25129;-73
2022/06/14 06:19:57;;;;;;;;;;;;;;;19.90;nan;101111.75;4988355;28;25049;-73
2022/06/14 06:22:34;;;;;;;3.90;2.00;;;;;;;20.25;nan;101117.06;4988182;28;19917;-73
2022/06/14 06:25:08;;;;;;;3.45;1.83;;;;;;;20.56;nan;101122.78;4986781;28;20016;-73
2022/06/14 06:27:40;;;;;;;4.30;1.88;;;;;;;21.04;nan;101119.13;4989431;28;20038;-73
2022/06/14 06:30:14;;;;;;;3.35;2.03;;;;;;;21.20;nan;101125.94;4988382;28;20121;-72
2022/06/14 06:32:40;;;;;;;2.45;1.50;;;;;;;21.38;nan;101128.84;4987059;28;20088;-73
2022/06/14 06:35:06;;;;;;;3.03;1.50;;;;;;;21.84;nan;101117.19;4988351;28;20039;-73
2022/06/14 06:37:41;;;;;;;4.15;1.52;;;;;;;22.25;nan;101117.88;4993009;28;20045;-75
2022/06/14 06:40:20;;;;;;;3.08;2.20;;;;;;;22.55;nan;101122.69;4988329;28;20034;-75
2022/06/14 06:43:05;;;;;;;4.18;2.05;;;;;;;22.66;nan;101116.59;4985909;28;20141;-73
2022/06/14 06:45:36;;;;;;;5.15;1.88;;;;;;;22.93;nan;101119.13;4988941;28;20034;-73
2022/06/14 06:48:18;;;;;;;2.28;1.50;;;;;;;23.12;nan;101118.19;4990759;28;20034;-72
2022/06/14 06:50:59;;;;;;;5.03;1.90;;;;;;;23.30;nan;101126.31;4991075;28;20039;-73
2022/06/14 06:53:30;;;;;;;2.42;1.17;;;;;;;23.40;nan;101125.78;4977264;28;20053;-75
2022/06/14 06:56:04;;;;;;;2.72;1.30;;;;;;;23.60;nan;101120.22;4991005;28;20081;-75
2022/06/14 06:58:36;;;;;;;2.47;1.25;;;;;;;23.82;nan;101122.50;4990320;28;20038;-72
2022/06/14 07:01:13;;;;;;;2.08;1.05;;;;;;;23.99;nan;101120.84;4990537;28;20058;-73
2022/06/14 07:03:59;;;;;;;1.73;1.10;;;;;;;24.27;nan;101122.19;4990001;28;20413;-72
2022/06/14 07:06:30;;;;;;;3.28;1.25;;;;;;;24.52;nan;101120.16;4983240;28;20771;-73
2022/06/14 07:09:05;;;;;;;2.13;1.20;;;;;;;24.69;nan;101123.03;4989078;28;20066;-73
2022/06/14 07:11:38;;;;;;;2.30;1.10;;;;;;;24.87;nan;101121.34;4982893;28;20034;-73
2022/06/14 07:14:24;;;;;;;3.42;1.30;;;;;;;24.70;nan;101134.72;4987852;28;20474;-76
2022/06/14 07:17:04;;;;;;;2.22;1.10;;;;;;;24.86;nan;101046.63;4976417;28;20061;-73
2022/06/14 07:19:44;;;;;;;1.63;0.95;;;;;;;25.27;nan;101005.13;4987857;28;20030;-73
2022/06/14 07:22:13;;;;;;;2.00;1.15;;;;;;;;;;4987622;28;20626;-73
2022/06/14 07:24:55;;;;;;;2.85;1.10;;;;;;;25.98;nan;101015.78;4991011;28;20046;-73
2022/06/14 07:27:26;;;;;;;2.90;1.02;;;;;;;26.31;nan;101015.03;4990054;28;20035;-73
2022/06/14 07:29:57;;;;;;;;;;;;;;;26.31;nan;101014.22;4971514;28;20185;-73
2022/06/14 07:32:25;;;;;;;5.68;1.30;;;;;;;26.50;nan;101007.47;4987519;28;19917;-73
2022/06/14 07:34:51;;;;;;;2.92;1.17;;;;;;;26.68;nan;101001.03;4990940;28;20042;-73
2022/06/14 07:37:22;;;;;;;1.85;1.00;;;;;;;26.82;nan;101004.22;4999366;28;20040;-75
2022/06/14 07:39:59;;;;;;;2.88;1.33;;;;;;;27.01;nan;101034.63;4989190;28;20061;-73
2022/06/14 07:42:35;;;;;;;2.42;1.17;;;;;;;26.83;nan;101044.66;4991678;28;20057;-73
2022/06/14 07:45:00;;;;;;;2.75;1.00;;;;;;;26.82;nan;101002.34;4998832;28;20038;-73
2022/06/14 07:47:33;;;;;;;2.50;1.20;;;;;;;27.10;nan;100997.81;4969386;28;20038;-73
2022/06/14 07:50:13;;;;;;;1.95;1.00;;;;;;;27.30;nan;101000.84;4988165;28;20034;-73
2022/06/14 07:52:48;;;;;;;2.77;1.10;;;;;;;27.70;nan;101005.16;4984535;28;20538;-73
2022/06/14 07:55:25;;;;;;;2.33;1.25;;;;;;;28.03;nan;100992.50;4991283;28;20066;-73
2022/06/14 07:57:57;;;;;;;1.80;1.00;;;;;;;28.27;nan;100992.13;4991614;28;20370;-73
2022/06/14 08:03:38;;;;;;;1.90;1.00;;;;;;;28.70;nan;101001.22;4990063;28;20041;-74
2022/06/14 08:06:09;;;;;;;3.10;1.17;;;;;;;28.65;nan;101058.34;4989317;28;20141;-73
2022/06/14 08:08:38;;;;;;;2.92;0.90;;;;;;;28.70;nan;100991.19;4990300;28;20038;-73
2022/06/14 08:11:09;;;;;;;2.65;1.00;;;;;;;29.12;nan;101036.66;4970165;28;20043;-73
2022/06/14 08:13:39;;;;;;;;;;;;;;;29.00;nan;100995.97;4992547;28;20030;-73
2022/06/14 08:16:07;;;;;;;1.63;0.80;;;;;;;29.17;nan;100962.31;4993341;28;20375;-73
2022/06/14 08:18:54;;;;;;;2.92;1.17;;;;;;;29.27;nan;100988.78;4991150;28;20551;-73
2022/06/14 08:21:23;;;;;;;2.40;1.20;;;;;;;29.14;nan;100996.34;4991055;28;20030;-73
2022/06/14 08:24:06;;;;;;;2.17;0.85;;;;;;;29.38;nan;100991.28;4990563;28;20054;-73
2022/06/14 08:26:48;;;;;;;2.00;0.80;;;;;;;29.95;nan;101071.38;4991246;28;20046;-74
2022/06/14 08:29:25;;;;;;;1.83;0.93;;;;;;;30.56;nan;101087.09;4989670;28;21953;-75
2022/06/14 08:32:02;;;;;;;2.80;1.00;;;;;;;30.80;nan;101075.63;4990971;28;20046;-74
2022/06/14 08:34:52;;;;;;;1.98;0.80;;;;;;;31.08;nan;101076.97;4992342;28;19936;-74
2022/06/14 08:37:17;;;;;;;1.83;0.80;;;;;;;31.11;nan;101074.50;5003727;28;20053;-75
2022/06/14 08:39:53;;;;;;;2.60;0.98;;;;;;;31.62;nan;101075.50;4999648;28;20070;-74
2022/06/14 08:42:34;;;;;;;1.85;0.90;;;;;;;31.41;nan;101067.34;4993890;28;20398;-74
2022/06/14 08:45:26;;;;;;;2.20;0.90;;;;;;;31.49;nan;101068.72;4996327;28;20034;-74
2022/06/14 08:48:00;;;;;;;2.13;0.93;;;;;;;31.62;nan;101072.75;4992626;28;20069;-74
2022/06/14 08:50:57;;;;;;;2.72;1.10;;;;;;;32.05;nan;101073.94;4992382;28;20042;-74
2022/06/14 08:53:53;;;;;;;2.45;0.90;;;;;;;32.62;nan;101068.91;4992640;28;20041;-74
2022/06/14 08:56:38;;;;;;;3.17;1.15;;;;;;;32.75;nan;101071.00;4972945;28;20511;-74
2022/06/14 08:59:09;;;;;;;2.22;1.10;;;;;;;32.70;nan;101062.78;4978959;28;20039;-74
2022/06/14 09:01:57;;;;;;;2.58;0.90;;;;;;;33.22;nan;101071.38;4993057;28;20038;-75
2022/06/14 09:04:43;;;;;;;2.70;1.10;;;;;;;33.48;nan;101060.91;4992182;28;20061;-74
2022/06/14 09:07:35;;;;;;;2.03;1.20;;;;;;;33.78;nan;101064.44;4992388;28;20041;-74
2022/06/14 09:10:39;;;;;;;3.13;1.20;;;;;;;34.04;nan;101065.69;4995749;28;20430;-74
2022/06/14 09:13:35;;;;;;;3.10;1.17;;;;;;;34.58;nan;101063.50;4969326;28;20057;-74
2022/06/14 09:16:38;;;;;;;2.65;1.10;;;;;;;35.31;nan;101061.13;4998451;28;20519;-75
2022/06/14 09:19:24;;;;;;;3.53;1.20;;;;;;;34.94;nan;101056.59;5002020;28;20066;-74
2022/06/14 09:22:05;;;;;;;4.65;1.27;;;;;;;34.75;nan;101049.22;4992617;28;20132;-75
2022/06/14 09:24:49;;;;;;;3.38;1.35;;;;;;;34.96;nan;101049.66;4985189;28;20034;-74
2022/06/14 09:27:33;;;;;;;3.03;1.30;;;;;;;35.11;nan;101045.84;4991676;28;20035;-77
2022/06/14 09:30:25;;;;;;;3.55;1.38;;;;;;;35.14;nan;101044.44;5000057;28;20033;-74
2022/06/14 09:33:16;;;;;;;3.17;1.30;;;;;;;35.55;nan;101038.09;4992062;28;20503;-76
2022/06/14 09:36:27;;;;;;;2.42;1.20;;;;;;;36.11;nan;101037.69;4987108;28;20046;-74
2022/06/14 09:39:04;;;;;;;3.53;1.10;;;;;;;35.81;nan;101035.63;4991604;28;20494;-76
2022/06/14 09:42:07;;;;;;;3.05;1.20;;;;;;;36.54;nan;101045.44;4993478;28;20187;-74
2022/06/14 09:44:53;;;;;;;2.83;1.40;;;;;;;36.32;nan;101042.69;4988825;28;20070;-74
2022/06/14 09:47:42;;;;;;;2.72;1.10;;;;;;;36.78;nan;101038.81;4995511;28;20029;-74
2022/06/14 09:50:35;;;;;;;3.10;1.48;;;;;;;37.08;nan;101039.94;4988774;28;20077;-76
2022/06/14 09:53:00;;;;;;;2.38;1.10;;;;;;;37.28;nan;101038.56;4991192;28;20503;-74
2022/06/14 09:55:44;;;;;;;2.93;1.17;;;;;;;37.99;nan;101035.59;4991860;28;20117;-74
2022/06/14 09:58:22;;;;;;;3.92;1.20;;;;;;;37.50;nan;101039.56;4990934;28;20671;-74
2022/06/14 10:01:11;;;;;;;3.13;1.27;;;;;;;38.18;nan;101032.50;4991773;28;20031;-74
2022/06/14 10:03:43;;;;;;;3.22;1.00;;;;;;;39.16;nan;101020.88;4991010;28;20039;-74
2022/06/14 10:06:48;;;;;;;4.22;1.30;;;;;;;39.30;nan;101021.44;4998963;28;20057;-75
2022/06/14 10:09:38;;;;;;;4.22;1.30;;;;;;;39.00;nan;101010.38;4990272;28;20100;-74
2022/06/14 10:13:01;;;;;;;3.13;1.40;;;;;;;38.68;nan;101006.25;4991030;28;20076;-74
2022/06/14 10:15:53;;;;;;;3.65;1.52;;;;;;;38.41;nan;101012.97;4994933;28;20104;-74
2022/06/14 10:18:21;;;;;;;3.67;1.33;;;;;;;37.89;nan;101007.47;4992649;28;20034;-74
2022/06/14 10:20:54;;;;;;;2.10;1.23;;;;;;;38.03;nan;101006.19;4991095;28;20097;-74
2022/06/14 10:23:47;;;;;;;2.13;1.20;;;;;;;38.90;nan;100996.88;4982437;28;20077;-74
2022/06/14 10:29:52;;;;;;;3.55;1.33;;;;;;;39.53;nan;100993.50;4943426;28;20065;-74
2022/06/14 10:32:59;;;;;;;2.63;1.10;;;;;;;39.99;nan;100991.66;4987591;28;20471;-74
2022/06/14 10:36:16;;;;;;;2.65;1.23;;;;;;;39.94;nan;100991.88;4988613;28;20435;-74
2022/06/14 10:38:55;;;;;;;4.78;1.38;;;;;;;39.70;nan;100985.03;4907075;29;20099;-75
2022/06/14 10:41:38;;;;;;;3.90;1.25;;;;;;;38.94;nan;100991.53;4907035;29;20060;-74
2022/06/14 10:44:18;;;;;;;3.70;1.80;;;;;;;38.94;nan;100983.25;4967947;28;20499;-74
2022/06/14 10:47:09;;;;;;;3.08;1.60;;;;;;;39.59;nan;100979.09;4998876;28;20461;-75
2022/06/14 10:49:44;;;;;;;3.10;1.48;;;;;;;40.75;nan;100980.09;4999825;28;20455;-74
2022/06/14 10:52:28;;;;;;;1.80;1.00;;;;;;;41.60;nan;100985.94;4988024;28;20038;-75
2022/06/14 10:55:12;;;;;;;3.83;1.40;;;;;;;41.51;nan;100969.38;4989537;28;20128;-74
2022/06/14 10:58:06;;;;;;;2.72;1.25;;;;;;;41.78;nan;100970.59;4984018;28;20038;-74
2022/06/14 11:00:58;;;;;;;2.42;1.13;;;;;;;41.16;nan;100969.13;4986798;28;20374;-75
2022/06/14 11:03:38;;;;;;;2.47;1.42;;;;;;;41.53;nan;100961.56;4986882;28;20057;-75
2022/06/14 11:06:47;;;;;;;3.22;1.23;;;;;;;42.33;nan;100959.78;4975333;28;20113;-74
2022/06/14 11:09:20;;;;;;;3.13;1.40;;;;;;;42.22;nan;100956.75;4977309;28;20042;-76
2022/06/14 11:12:00;;;;;;;2.75;1.23;;;;;;;41.67;nan;100952.00;4983039;28;20122;-75
2022/06/14 11:14:50;;;;;;;;;;;;;;;41.49;nan;100948.69;4984239;28;20068;-75
2022/06/14 11:17:28;;;;;;;2.53;1.30;;;;;;;41.82;nan;100947.69;4988746;28;19918;-75
2022/06/14 11:20:07;;;;;;;7.32;1.33;;;;;;;41.24;nan;100942.38;4985515;28;20129;-75
2022/06/14 11:22:41;;;;;;;2.47;0.90;;;;;;;41.66;nan;100931.75;4987725;28;20113;-74
2022/06/14 11:25:15;;;;;;;1.92;1.10;;;;;;;42.66;nan;100927.25;4989445;28;20041;-75
2022/06/14 11:27:58;;;;;;;2.30;1.20;;;;;;;43.34;nan;100921.28;4988915;28;20457;-74
2022/06/14 11:30:46;;;;;;;2.78;1.33;;;;;;;43.60;nan;100922.59;4987770;28;20049;-74
2022/06/14 11:33:32;;;;;;;2.55;1.00;;;;;;;43.54;nan;100919.31;4986934;28;20039;-75
2022/06/14 11:36:36;;;;;;;2.17;1.00;;;;;;;43.31;nan;100916.44;4987118;28;20042;-75
2022/06/14 11:39:16;;;;;;;2.67;1.20;;;;;;;43.57;nan;100912.97;4985894;28;20070;-75
2022/06/14 11:41:45;;;;;;;3.35;1.30;;;;;;;42.94;nan;100908.47;4988478;28;20039;-75
2022/06/14 11:44:13;;;;;;;3.45;1.30;;;;;;;42.56;nan;100906.38;4988734;28;20026;-75
2022/06/14 11:47:03;;;;;;;3.25;1.20;;;;;;;42.31;nan;100909.31;4988127;28;20038;-74
2022/06/14 11:49:50;;;;;;;4.10;1.17;;;;;;;41.92;nan;100900.72;4967193;28;20045;-74
2022/06/14 11:52:29;;;;;;;2.28;1.10;;;;;;;41.54;nan;100895.72;4987925;28;20313;-75
2022/06/14 11:55:17;;;;;;;3.00;1.05;;;;;;;42.80;nan;100892.25;4988498;28;20042;-75
2022/06/14 11:57:53;;;;;;;2.00;1.15;;;;;;;42.56;nan;100890.47;4987468;28;20034;-75
2022/06/14 12:00:40;;;;;;;2.40;1.10;;;;;;;42.57;nan;100888.50;4985927;28;20038;-74
2022/06/14 12:03:18;;;;;;;2.38;1.27;;;;;;;43.10;nan;100890.91;4985607;28;20066;-75
2022/06/14 12:05:50;;;;;;;2.10;1.08;;;;;;;43.50;nan;100885.00;4986376;28;20635;-74
2022/06/14 12:08:36;;;;;;;2.95;1.20;;;;;;;44.01;nan;100882.03;4987646;28;20038;-75
2022/06/14 12:11:22;;;;;;;3.50;1.15;;;;;;;44.17;nan;100881.09;4985491;28;20049;-75
2022/06/14 12:14:29;;;;;;;2.58;1.27;;;;;;;44.63;nan;100875.47;4984659;28;20169;-75
2022/06/14 12:17:43;;;;;;;1.98;1.00;;;;;;;44.82;nan;100878.16;4987250;28;20044;-75
2022/06/14 12:20:13;;;;;;;2.40;1.10;;;;;;;43.72;nan;100866.75;4973765;28;20049;-74
2022/06/14 12:22:49;;;;;;;2.22;1.00;;;;;;;43.15;nan;100871.16;4988109;28;20177;-74
2022/06/14 12:28:43;;;;;;;2.10;1.00;;;;;;;40.64;nan;100869.97;4987068;28;20041;-74
2022/06/14 12:31:13;;;;;;;3.78;1.30;;;;;;;39.92;nan;100854.53;4987354;28;20558;-74
2022/06/14 12:33:50;;;;;;;1.92;1.00;;;;;;;38.71;nan;100859.09;4965445;28;20034;-74
2022/06/14 12:36:43;;;;;;;2.35;1.20;;;;;;;37.70;nan;100851.31;4990014;28;20117;-74
2022/06/14 12:39:19;;;;;;;2.05;1.05;;;;;;;36.49;nan;100855.47;4986212;28;20070;-74
2022/06/14 12:42:13;;;;;;;2.53;1.10;;;;;;;35.65;nan;100848.88;4983292;28;20038;-74
2022/06/14 12:44:50;;;;;;;3.17;1.23;;;;;;;35.35;nan;100841.34;4994313;28;20045;-73
2022/06/14 12:47:24;;;;;;;1.90;1.10;;;;;;;34.96;nan;100845.50;4992243;28;20116;-74
2022/06/14 12:49:54;;;;;;;3.50;1.25;;;;;;;34.51;nan;100837.06;4990754;28;20551;-74
2022/06/14 12:52:36;;;;;;;2.38;1.10;;;;;;;33.90;nan;100833.53;4985175;28;20283;-74
2022/06/14 12:55:16;;;;;;;2.22;1.15;;;;;;;33.41;nan;100830.97;4987808;28;20038;-73
2022/06/14 12:58:07;;;;;;;2.03;1.00;;;;;;;32.87;nan;100829.56;4988425;28;20343;-74